Aérodrome :
LOGIN :

S'inscrire | Disclaimer

   EN    FR    IT 

 










Légende :    VFR   VFR Marginal   IFR   IFR Intensif   IFR Très Intensif
Visi : 
Plafond : 
>= 8 km
>= 3000ft
5 à 8 km
1000 à 3000 ft
1500m à 5 km
500 à 1000 ft
800 à 1500m
200 à 500 ft
< 800m
< 200 ft
Symboles :   Orages  Brouillard  Fortes neiges  Fortes précipitations  Vent > 20 kt
SIGMETs :   Divers  Orages  Givrage  Turbulence  Onde Orograph.  Cendres Volcan.







- Altitude de l'aérodrome : 56 ft
- Code IATA : ODE


EKOD - Odense

DERNIER METAR :
  • 200820Z 22013KT 4000 BR BKN005 OVC007 07/06 Q1025

METARs EXPIRÉS :
  • 200750Z 21014KT 3500 BR SCT006 BKN008 07/06 Q1025
  • 200739Z 22014KT 4000 BR BKN007 OVC009 07/06 Q1025
  • 200720Z 22014KT 6000 FEW007 BKN009 BKN011 06/05 Q1025
  • 200650Z 21012KT 7000 SCT012 BKN050 BKN080 06/05 Q1025

TAF TAF EKOD
Valide du 20 à 08h jusqu'au 20 à 15h UTC


200758Z 2008/2015 24012KT 4000 BR BKN006
TEMPO 2008/2013 2000 BR RADZ BKN003
BECMG 2013/2015 8000 NSW BKN012
Pas de NOTAMs connus pour ce terrain.



MET'MAP, la Météo Aéronautique d'un coup d'oeil ! - Copyright ORBIFLY Décembre 2007 - Disclaimer

ORBIFLY MET'MAP TEAM :

Programmation & Développement : Alexandra Zaïnal
Conception & Développement : Baudouin d'Aumeries
Co-Programmation & Développement : Marc-Olivier Méhu
Soutien technique & logistique : Manuel Goepfert

Contact : metmap@orbifly.com




SOURCES & CREDITS :

   NOAA